createdAt,value
2022-08-27T00:02:22.279Z,20.10
2022-08-27T00:04:50.754Z,20.00
2022-08-27T00:07:19.714Z,20.00
2022-08-27T00:09:48.289Z,19.90
2022-08-27T00:12:18.173Z,19.80
2022-08-27T00:14:46.845Z,19.80
2022-08-27T00:17:16.001Z,19.70
2022-08-27T00:19:44.814Z,19.70
2022-08-27T00:22:13.721Z,19.60
2022-08-27T00:24:49.043Z,19.60
2022-08-27T00:27:19.575Z,19.50
2022-08-27T00:29:48.190Z,19.50
2022-08-27T00:32:17.767Z,19.50
2022-08-27T00:34:46.333Z,19.50
2022-08-27T00:37:14.996Z,19.40
2022-08-27T00:39:43.586Z,19.40
2022-08-27T00:42:12.667Z,19.40
2022-08-27T00:44:42.860Z,19.40
2022-08-27T00:47:18.720Z,19.30
2022-08-27T00:49:54.275Z,19.30
2022-08-27T00:52:30.275Z,19.30
2022-08-27T00:55:03.956Z,19.30
2022-08-27T00:57:32.924Z,19.20
2022-08-27T01:00:03.158Z,19.20
2022-08-27T01:02:31.884Z,19.20
2022-08-27T01:05:10.043Z,19.20
2022-08-27T01:07:41.958Z,19.30
2022-08-27T01:10:15.832Z,19.30
2022-08-27T01:12:44.722Z,19.30
2022-08-27T01:15:26.937Z,19.20
2022-08-27T01:17:56.093Z,19.20
2022-08-27T01:20:30.586Z,19.30
2022-08-27T01:23:09.721Z,19.30
2022-08-27T01:25:40.186Z,19.30
2022-08-27T01:28:08.809Z,19.30
2022-08-27T01:30:37.575Z,19.30
2022-08-27T01:33:12.075Z,19.20
2022-08-27T01:35:41.002Z,19.30
2022-08-27T01:38:18.842Z,19.20
2022-08-27T01:41:01.132Z,19.20
2022-08-27T01:43:31.257Z,19.30
2022-08-27T01:46:00.892Z,19.30
2022-08-27T01:48:29.375Z,19.30
2022-08-27T01:50:57.814Z,19.40
2022-08-27T01:53:28.305Z,19.40
2022-08-27T01:56:00.130Z,19.50
2022-08-27T01:58:32.231Z,19.50
2022-08-27T02:01:05.849Z,19.50
2022-08-27T02:03:36.990Z,19.60
2022-08-27T02:06:09.139Z,19.60
2022-08-27T02:08:38.066Z,19.60
2022-08-27T02:11:09.701Z,19.60
2022-08-27T02:13:39.264Z,19.60
2022-08-27T02:16:09.481Z,19.50
2022-08-27T02:18:38.695Z,19.50
2022-08-27T02:21:10.651Z,19.50
2022-08-27T02:23:39.964Z,19.40
2022-08-27T02:26:10.033Z,19.40
2022-08-27T02:28:38.767Z,19.30
2022-08-27T02:31:07.554Z,19.30
2022-08-27T02:33:36.069Z,19.20
2022-08-27T02:36:06.223Z,19.20
2022-08-27T02:38:35.473Z,19.10
2022-08-27T02:41:04.285Z,19.10
2022-08-27T02:43:35.057Z,19.00
2022-08-27T02:46:06.239Z,19.00
2022-08-27T02:48:38.171Z,19.00
2022-08-27T02:51:07.758Z,19.00
2022-08-27T02:53:38.764Z,18.90
2022-08-27T02:56:09.375Z,18.90
2022-08-27T02:58:41.384Z,18.80
2022-08-27T03:01:13.684Z,18.80
2022-08-27T03:03:43.339Z,18.80
2022-08-27T03:06:12.140Z,18.80
2022-08-27T03:08:53.265Z,18.70
2022-08-27T03:11:24.195Z,18.70
2022-08-27T03:13:54.514Z,18.60
2022-08-27T03:16:23.347Z,18.60
2022-08-27T03:18:51.959Z,18.50
2022-08-27T03:21:25.661Z,18.50
2022-08-27T03:23:55.050Z,18.50
2022-08-27T03:26:24.354Z,18.50
2022-08-27T03:28:55.278Z,18.50
2022-08-27T03:31:27.936Z,18.40
2022-08-27T03:33:59.794Z,18.40
2022-08-27T03:36:30.916Z,18.40
2022-08-27T03:38:59.781Z,18.40
2022-08-27T03:41:54.055Z,18.40
2022-08-27T03:44:21.594Z,18.40
2022-08-27T03:46:51.487Z,18.40
2022-08-27T03:49:22.366Z,18.40
2022-08-27T03:51:53.483Z,18.40
2022-08-27T03:54:23.259Z,18.30
2022-08-27T03:56:52.527Z,18.30
2022-08-27T03:59:23.927Z,18.20
2022-08-27T04:01:52.921Z,18.20
2022-08-27T04:04:21.727Z,18.20
2022-08-27T04:06:50.629Z,18.20
2022-08-27T04:09:20.346Z,18.10
2022-08-27T04:11:51.090Z,18.10
2022-08-27T04:14:45.380Z,18.10
2022-08-27T04:17:20.493Z,18.10
2022-08-27T04:19:49.261Z,18.10
2022-08-27T04:22:18.040Z,18.00
2022-08-27T04:24:49.735Z,18.00
2022-08-27T04:27:21.017Z,18.00
2022-08-27T04:29:51.580Z,18.00
2022-08-27T04:32:23.877Z,18.00
2022-08-27T04:35:13.469Z,17.90
2022-08-27T04:37:48.695Z,17.90
2022-08-27T04:40:21.940Z,17.90
2022-08-27T04:42:52.588Z,17.90
2022-08-27T04:45:28.501Z,17.90
2022-08-27T04:48:00.897Z,17.90
2022-08-27T04:50:30.620Z,17.90
2022-08-27T04:52:59.383Z,17.90
2022-08-27T04:55:28.809Z,17.90
2022-08-27T04:58:03.549Z,17.90
2022-08-27T05:00:34.399Z,17.90
2022-08-27T05:03:03.191Z,17.90
2022-08-27T05:05:32.138Z,17.90
2022-08-27T05:08:01.242Z,17.90
2022-08-27T05:10:32.119Z,17.90
2022-08-27T05:13:01.140Z,18.00
2022-08-27T05:15:32.458Z,18.10
2022-08-27T05:18:05.291Z,18.10
2022-08-27T05:20:36.058Z,18.20
2022-08-27T05:23:07.050Z,18.20
2022-08-27T05:25:42.687Z,18.20
2022-08-27T05:28:21.521Z,18.20
2022-08-27T05:31:22.375Z,18.20
2022-08-27T05:34:25.587Z,18.30
2022-08-27T05:40:54.571Z,18.50
2022-08-27T05:43:25.790Z,18.60
2022-08-27T05:45:59.286Z,18.70
2022-08-27T05:48:28.001Z,18.80
2022-08-27T05:50:58.049Z,18.90
2022-08-27T05:53:27.603Z,19.00
2022-08-27T05:55:56.085Z,19.10
2022-08-27T05:58:43.195Z,19.20
2022-08-27T06:01:12.268Z,19.30
2022-08-27T06:03:41.838Z,19.30
2022-08-27T06:06:13.351Z,19.40
2022-08-27T06:08:42.343Z,19.40
2022-08-27T06:11:12.029Z,19.40
2022-08-27T06:13:40.564Z,19.40
2022-08-27T06:16:15.941Z,19.40
2022-08-27T06:18:47.478Z,19.50
2022-08-27T06:21:24.472Z,19.60
2022-08-27T06:23:54.127Z,19.70
2022-08-27T06:26:26.358Z,19.80
2022-08-27T06:28:55.990Z,19.90
2022-08-27T06:31:27.702Z,19.90
2022-08-27T06:34:03.031Z,20.00
2022-08-27T06:36:39.650Z,20.00
2022-08-27T06:39:13.328Z,20.00
2022-08-27T06:41:43.433Z,20.00
2022-08-27T06:44:12.864Z,20.10
2022-08-27T06:46:43.096Z,20.10
2022-08-27T06:49:13.102Z,20.20
2022-08-27T06:51:48.521Z,20.20
2022-08-27T06:54:20.136Z,20.30
2022-08-27T06:56:50.234Z,20.40
2022-08-27T06:59:20.836Z,20.50
2022-08-27T07:01:52.770Z,20.60
2022-08-27T07:04:32.352Z,20.60
2022-08-27T07:07:03.404Z,20.70
2022-08-27T07:09:33.157Z,20.80
2022-08-27T07:12:02.812Z,20.90
2022-08-27T07:14:37.525Z,21.00
2022-08-27T07:17:10.806Z,21.10
2022-08-27T07:19:41.461Z,21.30
2022-08-27T07:22:13.011Z,21.40
2022-08-27T07:24:41.761Z,21.60
2022-08-27T07:27:10.408Z,21.70
2022-08-27T07:29:39.574Z,21.90
2022-08-27T07:32:08.209Z,22.10
2022-08-27T07:34:36.481Z,22.20
2022-08-27T07:37:05.211Z,22.30
2022-08-27T07:39:35.059Z,22.40
2022-08-27T07:42:20.748Z,22.50
2022-08-27T07:44:49.965Z,22.60
2022-08-27T07:47:21.236Z,22.70
2022-08-27T07:49:49.919Z,22.80
2022-08-27T07:52:18.507Z,22.90
2022-08-27T07:54:48.312Z,23.00
2022-08-27T07:57:16.568Z,23.10
2022-08-27T07:59:45.361Z,23.20
2022-08-27T08:02:13.921Z,23.30
2022-08-27T08:04:42.438Z,23.40
2022-08-27T08:07:10.753Z,23.50
2022-08-27T08:09:39.538Z,23.60
2022-08-27T08:12:09.559Z,23.70
2022-08-27T08:14:38.315Z,23.80
2022-08-27T08:17:10.275Z,24.00
2022-08-27T08:19:40.370Z,24.10
2022-08-27T08:22:09.341Z,24.20
2022-08-27T08:24:37.694Z,24.30
2022-08-27T08:27:07.874Z,24.50
2022-08-27T08:29:38.496Z,24.50
2022-08-27T08:32:08.102Z,24.50
2022-08-27T08:34:37.649Z,24.40
2022-08-27T08:37:08.031Z,24.40
2022-08-27T08:39:38.408Z,24.30
2022-08-27T08:42:10.337Z,24.30
2022-08-27T08:44:46.547Z,24.10
2022-08-27T08:47:22.727Z,24.00
2022-08-27T08:49:57.928Z,24.00
2022-08-27T08:52:42.709Z,23.90
2022-08-27T08:55:22.887Z,23.80
2022-08-27T08:58:13.050Z,23.70
2022-08-27T09:00:46.332Z,23.70
2022-08-27T09:03:16.372Z,23.60
2022-08-27T09:05:50.225Z,23.50
2022-08-27T09:08:35.198Z,23.50
2022-08-27T09:11:14.097Z,23.60
2022-08-27T09:13:49.171Z,23.70
2022-08-27T09:16:20.085Z,23.90
2022-08-27T09:18:51.153Z,24.00
2022-08-27T09:21:34.506Z,24.00
2022-08-27T09:24:12.328Z,24.00
2022-08-27T09:26:45.050Z,24.10
2022-08-27T09:29:20.305Z,24.20
2022-08-27T09:31:56.988Z,24.30
2022-08-27T09:34:28.360Z,24.40
2022-08-27T09:37:04.652Z,24.50
2022-08-27T09:39:45.696Z,24.50
2022-08-27T09:42:31.096Z,24.40
2022-08-27T09:45:00.198Z,24.40
2022-08-27T09:47:29.940Z,24.30
2022-08-27T09:50:09.507Z,24.40
2022-08-27T09:52:51.629Z,24.60
2022-08-27T09:55:34.995Z,24.80
2022-08-27T09:58:05.837Z,24.90
2022-08-27T10:00:39.785Z,24.80
2022-08-27T10:03:11.437Z,24.70
2022-08-27T10:05:45.613Z,24.60
2022-08-27T10:08:26.312Z,24.50
2022-08-27T10:11:01.250Z,24.40
2022-08-27T10:13:34.968Z,24.30
2022-08-27T10:16:47.596Z,24.20
2022-08-27T10:19:36.005Z,24.20
2022-08-27T10:22:15.477Z,24.10
2022-08-27T10:25:00.538Z,24.10
2022-08-27T10:27:40.724Z,24.10
2022-08-27T10:30:12.894Z,24.10
2022-08-27T10:33:03.913Z,24.10
2022-08-27T10:35:48.158Z,24.10
2022-08-27T10:38:27.680Z,24.10
2022-08-27T10:41:02.990Z,24.10
2022-08-27T10:44:09.433Z,24.10
2022-08-27T10:46:54.980Z,24.10
2022-08-27T10:49:34.487Z,24.20
2022-08-27T10:52:16.540Z,24.30
2022-08-27T10:54:49.701Z,24.40
2022-08-27T10:57:40.190Z,24.50
2022-08-27T11:00:18.137Z,24.70
2022-08-27T11:02:51.709Z,24.90
2022-08-27T11:05:25.674Z,25.10
2022-08-27T11:08:03.610Z,25.30
2022-08-27T11:10:35.928Z,25.40
2022-08-27T11:13:09.930Z,25.50
2022-08-27T11:15:42.566Z,25.60
2022-08-27T11:18:25.950Z,25.60
2022-08-27T11:21:00.325Z,25.60
2022-08-27T11:23:37.396Z,25.70
2022-08-27T11:26:08.291Z,25.80
2022-08-27T11:28:41.763Z,25.70
2022-08-27T11:31:21.082Z,25.70
2022-08-27T11:34:02.438Z,25.70
2022-08-27T11:36:54.022Z,25.80
2022-08-27T11:39:49.888Z,25.70
2022-08-27T11:42:33.364Z,25.80
2022-08-27T11:45:16.723Z,25.70
2022-08-27T11:47:54.469Z,25.60
2022-08-27T11:50:25.666Z,25.40
2022-08-27T11:53:00.914Z,25.30
2022-08-27T11:55:36.625Z,25.20
2022-08-27T11:58:10.817Z,25.20
2022-08-27T12:00:42.174Z,25.10
2022-08-27T12:03:25.007Z,25.10
2022-08-27T12:06:27.246Z,25.10
2022-08-27T12:09:07.860Z,25.30
2022-08-27T12:11:46.971Z,25.40
2022-08-27T12:14:32.317Z,25.50
2022-08-27T12:17:09.470Z,25.50
2022-08-27T12:20:10.037Z,25.30
2022-08-27T12:23:31.829Z,25.40
2022-08-27T12:26:03.175Z,25.50
2022-08-27T12:28:33.377Z,25.60
2022-08-27T12:31:04.942Z,25.60
2022-08-27T12:33:37.535Z,25.60
2022-08-27T12:36:12.289Z,25.60
2022-08-27T12:38:50.852Z,25.60
2022-08-27T12:41:28.952Z,25.60
2022-08-27T12:44:08.337Z,25.50
2022-08-27T12:46:47.109Z,25.50
2022-08-27T12:49:39.097Z,25.50
2022-08-27T12:52:22.777Z,25.60
2022-08-27T12:55:09.081Z,25.60
2022-08-27T12:57:43.181Z,25.60
2022-08-27T13:00:19.561Z,25.60
2022-08-27T13:03:20.045Z,25.60
2022-08-27T13:05:56.790Z,25.70
2022-08-27T13:08:29.900Z,25.80
2022-08-27T13:11:08.693Z,25.80
2022-08-27T13:13:41.065Z,25.80
2022-08-27T13:16:10.929Z,25.70
2022-08-27T13:18:39.667Z,25.60
2022-08-27T13:21:15.977Z,25.60
2022-08-27T13:23:47.234Z,25.80
2022-08-27T13:26:15.499Z,25.90
2022-08-27T13:28:44.616Z,26.00
2022-08-27T13:31:15.589Z,26.00
2022-08-27T13:33:45.725Z,26.00
2022-08-27T13:36:14.382Z,26.00
2022-08-27T13:38:50.038Z,25.90
2022-08-27T13:41:30.070Z,25.80
2022-08-27T13:43:59.841Z,25.80
2022-08-27T13:46:32.537Z,25.60
2022-08-27T13:49:01.759Z,25.50
2022-08-27T13:51:32.806Z,25.40
2022-08-27T13:54:16.172Z,25.30
2022-08-27T13:57:08.216Z,25.20
2022-08-27T13:59:43.328Z,25.00
2022-08-27T14:02:27.781Z,25.10
2022-08-27T14:05:11.343Z,25.10
2022-08-27T14:07:45.502Z,25.20
2022-08-27T14:10:33.463Z,25.40
2022-08-27T14:13:06.059Z,25.50
2022-08-27T14:15:38.898Z,25.60
2022-08-27T14:18:37.121Z,25.60
2022-08-27T14:21:14.301Z,25.60
2022-08-27T14:23:42.748Z,25.60
2022-08-27T14:26:11.247Z,25.60
2022-08-27T14:28:39.604Z,25.60
2022-08-27T14:31:08.200Z,25.70
2022-08-27T14:33:38.166Z,25.80
2022-08-27T14:36:08.087Z,25.80
2022-08-27T14:38:43.885Z,25.80
2022-08-27T14:41:12.610Z,25.80
2022-08-27T14:43:42.292Z,25.70
2022-08-27T14:46:25.776Z,25.60
2022-08-27T14:48:58.998Z,25.50
2022-08-27T14:51:30.942Z,25.50
2022-08-27T14:53:59.737Z,25.40
2022-08-27T14:56:28.490Z,25.40
2022-08-27T14:58:57.128Z,25.40
2022-08-27T15:01:27.263Z,25.40
2022-08-27T15:03:58.305Z,25.50
2022-08-27T15:06:27.265Z,25.60
2022-08-27T15:08:58.872Z,25.70
2022-08-27T15:11:31.750Z,25.70
2022-08-27T15:14:02.685Z,25.60
2022-08-27T15:16:34.975Z,25.50
2022-08-27T15:19:07.295Z,25.30
2022-08-27T15:21:37.493Z,25.20
2022-08-27T15:24:18.865Z,25.20
2022-08-27T15:26:49.407Z,25.30
2022-08-27T15:29:18.911Z,25.40
2022-08-27T15:31:48.220Z,25.50
2022-08-27T15:34:18.458Z,25.50
2022-08-27T15:36:47.029Z,25.50
2022-08-27T15:39:15.443Z,25.50
2022-08-27T15:42:05.219Z,25.40
2022-08-27T15:44:33.838Z,25.20
2022-08-27T15:47:02.065Z,25.10
2022-08-27T15:49:31.797Z,25.00
2022-08-27T15:52:00.830Z,24.90
2022-08-27T15:54:29.624Z,24.80
2022-08-27T15:56:58.533Z,24.80
2022-08-27T15:59:26.872Z,24.80
2022-08-27T16:01:55.432Z,24.80
2022-08-27T16:04:24.494Z,24.80
2022-08-27T16:06:54.875Z,24.80
2022-08-27T16:09:23.967Z,24.80
2022-08-27T16:11:52.268Z,24.80
2022-08-27T16:14:20.532Z,24.80
2022-08-27T16:16:50.289Z,24.90
2022-08-27T16:19:20.497Z,24.90
2022-08-27T16:21:51.062Z,24.90
2022-08-27T16:24:21.774Z,24.90
2022-08-27T16:26:50.212Z,24.80
2022-08-27T16:29:19.920Z,24.70
2022-08-27T16:31:48.221Z,24.60
2022-08-27T16:34:25.059Z,24.50
2022-08-27T16:36:53.442Z,24.50
2022-08-27T16:39:23.237Z,24.50
2022-08-27T16:41:51.826Z,24.40
2022-08-27T16:44:26.826Z,24.20
2022-08-27T16:46:55.301Z,24.20
2022-08-27T16:49:41.067Z,24.20
2022-08-27T16:52:09.587Z,24.10
2022-08-27T16:54:39.227Z,24.00
2022-08-27T16:57:08.045Z,23.90
2022-08-27T16:59:36.477Z,23.90
2022-08-27T17:02:06.778Z,23.90
2022-08-27T17:04:41.868Z,23.80
2022-08-27T17:07:11.012Z,23.70
2022-08-27T17:09:40.648Z,23.60
2022-08-27T17:12:10.138Z,23.50
2022-08-27T17:14:38.826Z,23.50
2022-08-27T17:17:09.419Z,23.40
2022-08-27T17:19:37.993Z,23.30
2022-08-27T17:22:08.952Z,23.20
2022-08-27T17:24:37.223Z,23.10
2022-08-27T17:27:07.310Z,23.00
2022-08-27T17:29:36.744Z,22.90
2022-08-27T17:32:06.710Z,22.80
2022-08-27T17:34:35.713Z,22.80
2022-08-27T17:37:04.366Z,22.70
2022-08-27T17:39:34.146Z,22.60
2022-08-27T17:42:02.646Z,22.50
2022-08-27T17:44:36.736Z,22.50
2022-08-27T17:47:08.218Z,22.30
2022-08-27T17:49:38.182Z,22.40
2022-08-27T17:52:10.867Z,22.30
2022-08-27T17:54:41.981Z,22.20
2022-08-27T17:57:18.524Z,22.20
2022-08-27T17:59:48.803Z,22.10
2022-08-27T18:02:22.731Z,22.10
2022-08-27T18:04:51.405Z,22.10
2022-08-27T18:07:22.473Z,22.00
2022-08-27T18:09:51.521Z,22.00
2022-08-27T18:12:25.667Z,22.00
2022-08-27T18:15:05.351Z,21.90
2022-08-27T18:17:34.291Z,21.80
2022-08-27T18:20:05.891Z,21.90
2022-08-27T18:22:35.110Z,21.80
2022-08-27T18:25:10.762Z,21.80
2022-08-27T18:27:42.066Z,21.70
2022-08-27T18:30:13.443Z,21.70
2022-08-27T18:32:53.179Z,21.60
2022-08-27T18:35:27.287Z,21.60
2022-08-27T18:37:58.874Z,21.50
2022-08-27T18:40:31.402Z,21.50
2022-08-27T18:43:06.528Z,21.30
2022-08-27T18:45:37.798Z,21.40
2022-08-27T18:48:14.709Z,21.30
2022-08-27T18:50:50.620Z,21.30
2022-08-27T18:53:25.049Z,21.30
2022-08-27T18:55:55.290Z,21.20
2022-08-27T18:58:25.141Z,21.20
2022-08-27T19:01:03.411Z,21.10
2022-08-27T19:03:40.018Z,21.10
2022-08-27T19:06:12.361Z,21.10
2022-08-27T19:08:42.264Z,21.00
2022-08-27T19:11:11.061Z,20.90
2022-08-27T19:13:39.340Z,21.00
2022-08-27T19:16:14.702Z,20.90
2022-08-27T19:18:46.615Z,20.90
2022-08-27T19:21:15.664Z,20.80
2022-08-27T19:23:44.622Z,20.80
2022-08-27T19:26:19.167Z,20.70
2022-08-27T19:28:47.665Z,20.70
2022-08-27T19:31:21.095Z,20.60
2022-08-27T19:33:49.714Z,20.60
2022-08-27T19:36:21.683Z,20.50
2022-08-27T19:38:54.193Z,20.40
2022-08-27T19:41:27.728Z,20.40
2022-08-27T19:43:59.357Z,20.30
2022-08-27T19:46:33.068Z,20.30
2022-08-27T19:49:01.321Z,20.30
2022-08-27T19:51:29.709Z,20.20
2022-08-27T19:54:04.683Z,20.10
2022-08-27T19:56:34.438Z,20.10
2022-08-27T19:59:18.977Z,20.10
2022-08-27T20:01:52.710Z,20.10
2022-08-27T20:04:22.696Z,20.10
2022-08-27T20:06:53.511Z,20.00
2022-08-27T20:09:22.360Z,20.00
2022-08-27T20:11:50.885Z,20.00
2022-08-27T20:14:22.598Z,20.00
2022-08-27T20:16:54.118Z,20.00
2022-08-27T20:19:23.816Z,20.00
2022-08-27T20:21:52.954Z,20.00
2022-08-27T20:24:21.271Z,20.10
2022-08-27T20:26:53.616Z,20.10
2022-08-27T20:29:32.884Z,20.10
2022-08-27T20:32:04.139Z,20.20
2022-08-27T20:34:34.476Z,20.20
2022-08-27T20:37:06.483Z,20.10
2022-08-27T20:39:35.417Z,20.10
2022-08-27T20:42:03.759Z,20.10
2022-08-27T20:44:32.550Z,20.00
2022-08-27T20:47:03.468Z,20.00
2022-08-27T20:49:31.937Z,19.90
2022-08-27T20:52:03.262Z,19.90
2022-08-27T20:54:33.833Z,19.80
2022-08-27T20:57:03.377Z,19.80
2022-08-27T20:59:49.443Z,19.70
2022-08-27T21:02:24.965Z,19.60
2022-08-27T21:04:54.059Z,19.60
2022-08-27T21:07:24.080Z,19.60
2022-08-27T21:09:57.270Z,19.50
2022-08-27T21:12:26.849Z,19.50
2022-08-27T21:14:56.681Z,19.40
2022-08-27T21:17:30.696Z,19.40
2022-08-27T21:19:59.438Z,19.40
2022-08-27T21:22:27.973Z,19.40
2022-08-27T21:24:57.320Z,19.40
2022-08-27T21:27:25.813Z,19.30
2022-08-27T21:29:54.591Z,19.30
2022-08-27T21:32:23.255Z,19.20
2022-08-27T21:34:53.607Z,19.20
2022-08-27T21:37:22.440Z,19.20
2022-08-27T21:39:50.782Z,19.10
2022-08-27T21:42:19.126Z,19.10
2022-08-27T21:44:47.390Z,19.00
2022-08-27T21:47:15.646Z,19.00
2022-08-27T21:49:43.905Z,19.00
2022-08-27T21:52:13.630Z,19.00
2022-08-27T21:54:43.290Z,19.00
2022-08-27T21:57:15.526Z,18.90
2022-08-27T21:59:47.799Z,18.90
2022-08-27T22:02:38.704Z,18.70
2022-08-27T22:05:06.931Z,18.80
2022-08-27T22:07:36.859Z,18.70
2022-08-27T22:10:06.693Z,18.70
2022-08-27T22:12:35.246Z,18.70
2022-08-27T22:15:05.011Z,18.70
2022-08-27T22:17:33.330Z,18.70
2022-08-27T22:20:01.881Z,18.60
2022-08-27T22:22:31.125Z,18.60
2022-08-27T22:25:00.825Z,18.60
2022-08-27T22:27:29.409Z,18.60
2022-08-27T22:29:58.052Z,18.50
2022-08-27T22:32:26.298Z,18.50
2022-08-27T22:34:54.570Z,18.50
2022-08-27T22:37:22.959Z,18.40
2022-08-27T22:39:51.521Z,18.30
2022-08-27T22:42:21.663Z,18.30
2022-08-27T22:44:49.952Z,18.20
2022-08-27T22:47:18.644Z,18.20
2022-08-27T22:49:46.922Z,18.20
2022-08-27T22:52:15.436Z,18.20
2022-08-27T22:54:43.886Z,18.10
2022-08-27T22:57:12.163Z,18.10
2022-08-27T22:59:42.103Z,18.00
2022-08-27T23:02:11.040Z,18.00
2022-08-27T23:04:54.584Z,18.00
2022-08-27T23:07:23.691Z,18.00
2022-08-27T23:09:52.114Z,17.90
2022-08-27T23:12:20.889Z,17.90
2022-08-27T23:14:50.801Z,17.90
2022-08-27T23:17:19.817Z,17.90
2022-08-27T23:19:48.084Z,17.90
2022-08-27T23:22:16.663Z,17.80
2022-08-27T23:25:03.668Z,17.80
2022-08-27T23:27:32.438Z,17.80
2022-08-27T23:30:08.039Z,17.70
2022-08-27T23:32:37.114Z,17.70
2022-08-27T23:35:06.230Z,17.60
2022-08-27T23:37:34.666Z,17.60
2022-08-27T23:40:03.208Z,17.60
2022-08-27T23:42:31.591Z,17.50
2022-08-27T23:45:01.268Z,17.40
2022-08-27T23:47:29.544Z,17.40
2022-08-27T23:49:58.024Z,17.30
2022-08-27T23:52:26.293Z,17.40
2022-08-27T23:54:54.626Z,17.30
2022-08-27T23:57:22.917Z,17.30
2022-08-27T23:59:51.261Z,17.30
